weather.gov     
National Weather Service

Terminal Aerodrome Forecast
NWS Homepage
This page is being discontinued on March 12, 2014.
The same data is available at this site. Please update your bookmarks.
Thank you, and we apologize for the inconvenience.
Please send an email to SR-SRH.Webmaster@noaa.gov with any concerns.


Current Version
Previous Version:    01  02  03  04  05  06  07  08  09  10  11  12  13  14  15  16  17  18  19  20  21  22  23  24  25  26  27  28  29  30  
   31  32  33  34  35  36  37  38  39  40  41  42  43  44  45  46  47  
[Printable]
129
FTUS43 KDDC 020540
TAFHYS
TAF
KHYS 020540Z 0206/0306 34015KT 4SM -DZ FEW015 BKN060
     FM021100 35017KT P6SM OVC015
      TEMPO 0211/0215 P6SM -SHRA OVC010
     FM021800 34020KT P6SM OVC007
     FM022100 34017KT P6SM OVC050=




129
FTUS43 KDDC 020540
TAFHYS
TAF
KHYS 020540Z 0206/0306 34015KT 4SM -DZ FEW015 BKN060
     FM021100 35017KT P6SM OVC015
      TEMPO 0211/0215 P6SM -SHRA OVC010
     FM021800 34020KT P6SM OVC007
     FM022100 34017KT P6SM OVC050=


U.S. Dept. of Commerce
NOAA National Weather Service
1325 East West Highway
Silver Spring, MD 20910
E-mail: w-nws.webmaster@noaa.gov
Page last modified: May 16, 2007
NATIONAL WEATHER SERVICE: for Safety, for Work, for Fun - FOR LIFE